sensor_id;sensor_type;location;lat;lon;timestamp;P1;durP1;ratioP1;P2;durP2;ratioP2
76348;SDS011;65172;46.764;15.406;2023-11-22T00:02:19;502.98;;;24.65;;
76348;SDS011;65172;46.764;15.406;2023-11-22T00:04:45;938.47;;;31.40;;
76348;SDS011;65172;46.764;15.406;2023-11-22T00:07:11;871.90;;;33.10;;
76348;SDS011;65172;46.764;15.406;2023-11-22T00:09:37;1472.07;;;52.30;;
76348;SDS011;65172;46.764;15.406;2023-11-22T00:12:03;1180.15;;;44.45;;
76348;SDS011;65172;46.764;15.406;2023-11-22T00:14:28;958.00;;;30.65;;
76348;SDS011;65172;46.764;15.406;2023-11-22T00:16:54;994.13;;;38.10;;
76348;SDS011;65172;46.764;15.406;2023-11-22T00:19:19;1268.22;;;43.58;;
76348;SDS011;65172;46.764;15.406;2023-11-22T00:21:47;663.05;;;29.45;;
76348;SDS011;65172;46.764;15.406;2023-11-22T00:24:13;371.15;;;19.52;;
76348;SDS011;65172;46.764;15.406;2023-11-22T00:26:39;412.63;;;20.42;;
76348;SDS011;65172;46.764;15.406;2023-11-22T00:29:04;1354.65;;;42.75;;
76348;SDS011;65172;46.764;15.406;2023-11-22T00:31:30;661.75;;;26.20;;
76348;SDS011;65172;46.764;15.406;2023-11-22T00:33:56;48.47;;;10.98;;
76348;SDS011;65172;46.764;15.406;2023-11-22T00:36:21;223.35;;;14.45;;
76348;SDS011;65172;46.764;15.406;2023-11-22T00:38:47;541.20;;;25.38;;
76348;SDS011;65172;46.764;15.406;2023-11-22T00:41:12;812.25;;;38.80;;
76348;SDS011;65172;46.764;15.406;2023-11-22T00:43:39;1006.15;;;36.75;;
76348;SDS011;65172;46.764;15.406;2023-11-22T00:46:05;1272.32;;;47.60;;
76348;SDS011;65172;46.764;15.406;2023-11-22T00:48:31;1145.68;;;45.25;;
76348;SDS011;65172;46.764;15.406;2023-11-22T00:50:56;101.85;;;10.93;;
76348;SDS011;65172;46.764;15.406;2023-11-22T00:53:22;397.27;;;17.83;;
76348;SDS011;65172;46.764;15.406;2023-11-22T00:55:48;545.45;;;23.50;;
76348;SDS011;65172;46.764;15.406;2023-11-22T00:58:14;963.40;;;38.78;;
76348;SDS011;65172;46.764;15.406;2023-11-22T01:00:40;542.95;;;26.17;;
76348;SDS011;65172;46.764;15.406;2023-11-22T01:03:05;573.45;;;23.83;;
76348;SDS011;65172;46.764;15.406;2023-11-22T01:05:33;737.75;;;32.08;;
76348;SDS011;65172;46.764;15.406;2023-11-22T01:07:59;923.63;;;35.35;;
76348;SDS011;65172;46.764;15.406;2023-11-22T01:10:24;416.83;;;20.10;;
76348;SDS011;65172;46.764;15.406;2023-11-22T01:12:50;966.05;;;39.58;;
76348;SDS011;65172;46.764;15.406;2023-11-22T01:15:15;153.73;;;11.82;;
76348;SDS011;65172;46.764;15.406;2023-11-22T01:17:41;215.50;;;15.02;;
76348;SDS011;65172;46.764;15.406;2023-11-22T01:20:07;59.33;;;11.15;;
76348;SDS011;65172;46.764;15.406;2023-11-22T01:22:35;75.15;;;11.27;;
76348;SDS011;65172;46.764;15.406;2023-11-22T01:25:00;294.45;;;15.90;;
76348;SDS011;65172;46.764;15.406;2023-11-22T01:27:26;14.82;;;10.35;;
76348;SDS011;65172;46.764;15.406;2023-11-22T01:29:52;111.90;;;14.55;;
76348;SDS011;65172;46.764;15.406;2023-11-22T01:32:19;770.80;;;31.42;;
76348;SDS011;65172;46.764;15.406;2023-11-22T01:34:46;800.72;;;31.00;;
76348;SDS011;65172;46.764;15.406;2023-11-22T01:37:11;495.63;;;25.38;;
76348;SDS011;65172;46.764;15.406;2023-11-22T01:39:39;418.67;;;21.52;;
76348;SDS011;65172;46.764;15.406;2023-11-22T01:42:05;657.05;;;26.98;;
76348;SDS011;65172;46.764;15.406;2023-11-22T01:44:31;497.35;;;25.50;;
76348;SDS011;65172;46.764;15.406;2023-11-22T01:46:57;1034.80;;;42.90;;
76348;SDS011;65172;46.764;15.406;2023-11-22T01:49:23;449.85;;;22.50;;
76348;SDS011;65172;46.764;15.406;2023-11-22T01:51:49;269.95;;;13.13;;
76348;SDS011;65172;46.764;15.406;2023-11-22T01:54:14;112.47;;;12.15;;
76348;SDS011;65172;46.764;15.406;2023-11-22T01:56:40;13.73;;;10.70;;
76348;SDS011;65172;46.764;15.406;2023-11-22T01:59:06;16.05;;;10.82;;
76348;SDS011;65172;46.764;15.406;2023-11-22T02:01:31;14.95;;;10.38;;
76348;SDS011;65172;46.764;15.406;2023-11-22T02:03:57;17.23;;;10.95;;
76348;SDS011;65172;46.764;15.406;2023-11-22T02:06:23;17.30;;;10.27;;
76348;SDS011;65172;46.764;15.406;2023-11-22T02:08:49;425.45;;;18.70;;
76348;SDS011;65172;46.764;15.406;2023-11-22T02:11:18;725.53;;;29.17;;
76348;SDS011;65172;46.764;15.406;2023-11-22T02:13:50;910.15;;;35.20;;
76348;SDS011;65172;46.764;15.406;2023-11-22T02:16:16;323.65;;;15.48;;
76348;SDS011;65172;46.764;15.406;2023-11-22T02:18:45;259.20;;;13.48;;
76348;SDS011;65172;46.764;15.406;2023-11-22T02:21:11;482.45;;;16.67;;
76348;SDS011;65172;46.764;15.406;2023-11-22T02:23:36;130.23;;;12.18;;
76348;SDS011;65172;46.764;15.406;2023-11-22T02:26:02;115.40;;;9.45;;
76348;SDS011;65172;46.764;15.406;2023-11-22T02:28:27;23.00;;;12.93;;
76348;SDS011;65172;46.764;15.406;2023-11-22T02:30:53;18.38;;;12.98;;
76348;SDS011;65172;46.764;15.406;2023-11-22T02:33:19;72.22;;;11.80;;
76348;SDS011;65172;46.764;15.406;2023-11-22T02:35:45;133.15;;;11.77;;
76348;SDS011;65172;46.764;15.406;2023-11-22T02:38:11;544.85;;;22.20;;
76348;SDS011;65172;46.764;15.406;2023-11-22T02:40:36;778.72;;;27.70;;
76348;SDS011;65172;46.764;15.406;2023-11-22T02:43:02;1443.97;;;51.80;;
76348;SDS011;65172;46.764;15.406;2023-11-22T02:45:32;880.70;;;36.40;;
76348;SDS011;65172;46.764;15.406;2023-11-22T02:47:58;879.20;;;30.92;;
76348;SDS011;65172;46.764;15.406;2023-11-22T02:50:24;70.47;;;8.55;;
76348;SDS011;65172;46.764;15.406;2023-11-22T02:52:50;545.63;;;23.15;;
76348;SDS011;65172;46.764;15.406;2023-11-22T02:55:16;112.10;;;9.65;;
76348;SDS011;65172;46.764;15.406;2023-11-22T02:57:41;152.00;;;10.95;;
76348;SDS011;65172;46.764;15.406;2023-11-22T03:00:07;222.30;;;11.73;;
76348;SDS011;65172;46.764;15.406;2023-11-22T03:02:34;51.45;;;8.43;;
76348;SDS011;65172;46.764;15.406;2023-11-22T03:05:00;127.97;;;10.18;;
76348;SDS011;65172;46.764;15.406;2023-11-22T03:07:26;284.17;;;13.73;;
76348;SDS011;65172;46.764;15.406;2023-11-22T03:09:51;632.83;;;22.02;;
76348;SDS011;65172;46.764;15.406;2023-11-22T03:12:18;738.45;;;25.15;;
76348;SDS011;65172;46.764;15.406;2023-11-22T03:14:45;43.65;;;6.63;;
76348;SDS011;65172;46.764;15.406;2023-11-22T03:17:11;59.85;;;7.68;;
76348;SDS011;65172;46.764;15.406;2023-11-22T03:19:38;38.60;;;7.07;;
76348;SDS011;65172;46.764;15.406;2023-11-22T03:22:05;57.33;;;8.25;;
76348;SDS011;65172;46.764;15.406;2023-11-22T03:24:31;52.05;;;7.10;;
76348;SDS011;65172;46.764;15.406;2023-11-22T03:26:59;22.42;;;6.93;;
76348;SDS011;65172;46.764;15.406;2023-11-22T03:29:25;146.45;;;10.50;;
76348;SDS011;65172;46.764;15.406;2023-11-22T03:31:50;19.70;;;6.30;;
76348;SDS011;65172;46.764;15.406;2023-11-22T03:34:16;30.92;;;6.40;;
76348;SDS011;65172;46.764;15.406;2023-11-22T03:36:42;36.10;;;5.95;;
76348;SDS011;65172;46.764;15.406;2023-11-22T03:39:08;61.67;;;6.63;;
76348;SDS011;65172;46.764;15.406;2023-11-22T03:41:35;203.07;;;8.73;;
76348;SDS011;65172;46.764;15.406;2023-11-22T03:44:02;61.80;;;5.53;;
76348;SDS011;65172;46.764;15.406;2023-11-22T03:46:29;87.32;;;6.20;;
76348;SDS011;65172;46.764;15.406;2023-11-22T03:48:55;227.75;;;9.45;;
76348;SDS011;65172;46.764;15.406;2023-11-22T03:51:21;444.73;;;12.18;;
76348;SDS011;65172;46.764;15.406;2023-11-22T03:53:46;227.10;;;9.80;;
76348;SDS011;65172;46.764;15.406;2023-11-22T03:56:11;602.38;;;18.50;;
76348;SDS011;65172;46.764;15.406;2023-11-22T03:58:37;49.40;;;6.25;;
76348;SDS011;65172;46.764;15.406;2023-11-22T04:01:02;107.38;;;6.68;;
76348;SDS011;65172;46.764;15.406;2023-11-22T04:03:28;12.02;;;5.20;;
76348;SDS011;65172;46.764;15.406;2023-11-22T04:05:53;19.33;;;4.80;;
76348;SDS011;65172;46.764;15.406;2023-11-22T04:08:19;48.38;;;6.43;;
76348;SDS011;65172;46.764;15.406;2023-11-22T04:10:45;11.23;;;4.97;;
76348;SDS011;65172;46.764;15.406;2023-11-22T04:13:10;72.57;;;6.38;;
76348;SDS011;65172;46.764;15.406;2023-11-22T04:15:36;55.17;;;6.43;;
76348;SDS011;65172;46.764;15.406;2023-11-22T04:18:01;182.68;;;9.52;;
76348;SDS011;65172;46.764;15.406;2023-11-22T04:20:27;6.15;;;5.55;;
76348;SDS011;65172;46.764;15.406;2023-11-22T04:22:52;432.77;;;17.83;;
76348;SDS011;65172;46.764;15.406;2023-11-22T04:25:18;210.15;;;11.93;;
76348;SDS011;65172;46.764;15.406;2023-11-22T04:27:43;211.75;;;13.25;;
76348;SDS011;65172;46.764;15.406;2023-11-22T04:30:09;474.50;;;22.13;;
76348;SDS011;65172;46.764;15.406;2023-11-22T04:32:38;90.10;;;10.65;;
76348;SDS011;65172;46.764;15.406;2023-11-22T04:35:04;71.53;;;9.65;;
76348;SDS011;65172;46.764;15.406;2023-11-22T04:37:30;80.18;;;9.40;;
76348;SDS011;65172;46.764;15.406;2023-11-22T04:40:00;60.67;;;9.65;;
76348;SDS011;65172;46.764;15.406;2023-11-22T04:42:26;83.45;;;10.10;;
76348;SDS011;65172;46.764;15.406;2023-11-22T04:44:53;57.85;;;10.20;;
76348;SDS011;65172;46.764;15.406;2023-11-22T04:47:19;36.55;;;9.10;;
76348;SDS011;65172;46.764;15.406;2023-11-22T04:49:44;28.15;;;7.97;;
76348;SDS011;65172;46.764;15.406;2023-11-22T04:52:09;55.60;;;9.57;;
76348;SDS011;65172;46.764;15.406;2023-11-22T04:54:35;119.50;;;11.48;;
76348;SDS011;65172;46.764;15.406;2023-11-22T04:57:00;147.23;;;20.23;;
76348;SDS011;65172;46.764;15.406;2023-11-22T04:59:26;69.32;;;11.60;;
76348;SDS011;65172;46.764;15.406;2023-11-22T05:01:51;183.55;;;15.38;;
76348;SDS011;65172;46.764;15.406;2023-11-22T05:04:17;41.33;;;9.80;;
76348;SDS011;65172;46.764;15.406;2023-11-22T05:06:43;20.35;;;9.07;;
76348;SDS011;65172;46.764;15.406;2023-11-22T05:09:09;17.75;;;8.38;;
76348;SDS011;65172;46.764;15.406;2023-11-22T05:11:36;54.75;;;10.23;;
76348;SDS011;65172;46.764;15.406;2023-11-22T05:14:01;56.47;;;11.40;;
76348;SDS011;65172;46.764;15.406;2023-11-22T05:16:27;109.53;;;11.02;;
76348;SDS011;65172;46.764;15.406;2023-11-22T05:18:52;34.25;;;9.13;;
76348;SDS011;65172;46.764;15.406;2023-11-22T05:21:18;35.10;;;8.10;;
76348;SDS011;65172;46.764;15.406;2023-11-22T05:23:43;79.70;;;12.23;;
76348;SDS011;65172;46.764;15.406;2023-11-22T05:26:09;89.40;;;10.10;;
76348;SDS011;65172;46.764;15.406;2023-11-22T05:28:34;49.88;;;9.77;;
76348;SDS011;65172;46.764;15.406;2023-11-22T05:31:00;549.08;;;21.10;;
76348;SDS011;65172;46.764;15.406;2023-11-22T05:33:25;302.48;;;14.23;;
76348;SDS011;65172;46.764;15.406;2023-11-22T05:35:51;385.00;;;16.10;;
76348;SDS011;65172;46.764;15.406;2023-11-22T05:38:16;99.38;;;10.00;;
76348;SDS011;65172;46.764;15.406;2023-11-22T05:40:42;215.27;;;13.73;;
76348;SDS011;65172;46.764;15.406;2023-11-22T05:43:08;325.25;;;17.90;;
76348;SDS011;65172;46.764;15.406;2023-11-22T05:45:34;202.77;;;12.75;;
76348;SDS011;65172;46.764;15.406;2023-11-22T05:48:00;353.55;;;14.80;;
76348;SDS011;65172;46.764;15.406;2023-11-22T05:50:26;116.25;;;10.18;;
76348;SDS011;65172;46.764;15.406;2023-11-22T05:52:51;385.60;;;15.23;;
76348;SDS011;65172;46.764;15.406;2023-11-22T05:55:17;162.23;;;11.25;;
76348;SDS011;65172;46.764;15.406;2023-11-22T05:57:43;74.22;;;8.68;;
76348;SDS011;65172;46.764;15.406;2023-11-22T06:00:09;92.35;;;9.32;;
76348;SDS011;65172;46.764;15.406;2023-11-22T06:02:35;51.67;;;8.45;;
76348;SDS011;65172;46.764;15.406;2023-11-22T06:05:02;95.38;;;10.07;;
76348;SDS011;65172;46.764;15.406;2023-11-22T06:07:28;29.83;;;7.90;;
76348;SDS011;65172;46.764;15.406;2023-11-22T06:09:54;159.95;;;10.00;;
76348;SDS011;65172;46.764;15.406;2023-11-22T06:12:19;320.63;;;14.48;;
76348;SDS011;65172;46.764;15.406;2023-11-22T06:14:46;235.55;;;15.00;;
76348;SDS011;65172;46.764;15.406;2023-11-22T06:17:12;872.90;;;31.90;;
76348;SDS011;65172;46.764;15.406;2023-11-22T06:19:38;386.80;;;18.77;;
76348;SDS011;65172;46.764;15.406;2023-11-22T06:22:03;366.20;;;15.38;;
76348;SDS011;65172;46.764;15.406;2023-11-22T06:24:29;639.78;;;24.10;;
76348;SDS011;65172;46.764;15.406;2023-11-22T06:26:54;343.95;;;20.98;;
76348;SDS011;65172;46.764;15.406;2023-11-22T06:29:20;1063.05;;;47.00;;
76348;SDS011;65172;46.764;15.406;2023-11-22T06:31:45;1487.65;;;66.68;;
76348;SDS011;65172;46.764;15.406;2023-11-22T06:34:11;22.55;;;9.60;;
76348;SDS011;65172;46.764;15.406;2023-11-22T06:36:37;246.07;;;17.33;;
76348;SDS011;65172;46.764;15.406;2023-11-22T06:39:03;8.65;;;7.38;;
76348;SDS011;65172;46.764;15.406;2023-11-22T06:41:30;465.60;;;19.23;;
76348;SDS011;65172;46.764;15.406;2023-11-22T06:43:55;821.65;;;35.00;;
76348;SDS011;65172;46.764;15.406;2023-11-22T06:46:21;314.48;;;15.70;;
76348;SDS011;65172;46.764;15.406;2023-11-22T06:48:48;1138.30;;;40.97;;
76348;SDS011;65172;46.764;15.406;2023-11-22T06:51:14;749.42;;;30.65;;
76348;SDS011;65172;46.764;15.406;2023-11-22T06:53:40;16.10;;;8.05;;
76348;SDS011;65172;46.764;15.406;2023-11-22T06:56:06;17.23;;;13.30;;
76348;SDS011;65172;46.764;15.406;2023-11-22T06:58:32;19.63;;;12.32;;
76348;SDS011;65172;46.764;15.406;2023-11-22T07:00:57;14.35;;;10.20;;
76348;SDS011;65172;46.764;15.406;2023-11-22T07:03:23;58.45;;;13.32;;
76348;SDS011;65172;46.764;15.406;2023-11-22T07:05:48;11.85;;;10.15;;
76348;SDS011;65172;46.764;15.406;2023-11-22T07:08:13;13.77;;;10.68;;
76348;SDS011;65172;46.764;15.406;2023-11-22T07:10:41;19.60;;;13.93;;
76348;SDS011;65172;46.764;15.406;2023-11-22T07:13:07;18.05;;;12.73;;
76348;SDS011;65172;46.764;15.406;2023-11-22T07:15:32;14.82;;;10.57;;
76348;SDS011;65172;46.764;15.406;2023-11-22T07:17:58;14.38;;;11.32;;
76348;SDS011;65172;46.764;15.406;2023-11-22T07:20:24;29.50;;;21.33;;
76348;SDS011;65172;46.764;15.406;2023-11-22T07:22:49;775.05;;;32.72;;
76348;SDS011;65172;46.764;15.406;2023-11-22T07:25:20;1053.20;;;38.28;;
76348;SDS011;65172;46.764;15.406;2023-11-22T07:27:49;904.15;;;32.95;;
76348;SDS011;65172;46.764;15.406;2023-11-22T07:30:21;592.13;;;21.77;;
76348;SDS011;65172;46.764;15.406;2023-11-22T07:32:49;215.15;;;12.80;;
76348;SDS011;65172;46.764;15.406;2023-11-22T07:35:17;544.42;;;19.38;;
76348;SDS011;65172;46.764;15.406;2023-11-22T07:37:45;144.15;;;12.00;;
76348;SDS011;65172;46.764;15.406;2023-11-22T07:40:12;282.23;;;13.25;;
76348;SDS011;65172;46.764;15.406;2023-11-22T07:42:39;140.95;;;11.23;;
76348;SDS011;65172;46.764;15.406;2023-11-22T07:45:05;126.00;;;10.95;;
76348;SDS011;65172;46.764;15.406;2023-11-22T07:47:31;394.77;;;18.25;;
76348;SDS011;65172;46.764;15.406;2023-11-22T07:49:57;276.38;;;15.07;;
76348;SDS011;65172;46.764;15.406;2023-11-22T07:52:23;75.72;;;39.78;;
76348;SDS011;65172;46.764;15.406;2023-11-22T07:54:55;120.78;;;42.45;;
76348;SDS011;65172;46.764;15.406;2023-11-22T07:57:21;204.75;;;15.95;;
76348;SDS011;65172;46.764;15.406;2023-11-22T07:59:48;123.72;;;13.98;;
76348;SDS011;65172;46.764;15.406;2023-11-22T08:02:14;158.50;;;12.25;;
76348;SDS011;65172;46.764;15.406;2023-11-22T08:04:43;80.72;;;11.75;;
76348;SDS011;65172;46.764;15.406;2023-11-22T08:07:10;69.93;;;11.55;;
76348;SDS011;65172;46.764;15.406;2023-11-22T08:09:40;78.55;;;9.95;;
76348;SDS011;65172;46.764;15.406;2023-11-22T08:12:06;83.10;;;12.18;;
76348;SDS011;65172;46.764;15.406;2023-11-22T08:14:32;284.65;;;15.38;;
76348;SDS011;65172;46.764;15.406;2023-11-22T08:16:58;373.50;;;18.17;;
76348;SDS011;65172;46.764;15.406;2023-11-22T08:19:23;36.55;;;9.15;;
76348;SDS011;65172;46.764;15.406;2023-11-22T08:21:49;573.47;;;21.15;;
76348;SDS011;65172;46.764;15.406;2023-11-22T08:24:15;92.00;;;9.57;;
76348;SDS011;65172;46.764;15.406;2023-11-22T08:26:40;36.33;;;8.00;;
76348;SDS011;65172;46.764;15.406;2023-11-22T08:29:06;70.93;;;9.27;;
76348;SDS011;65172;46.764;15.406;2023-11-22T08:31:36;132.45;;;9.98;;
76348;SDS011;65172;46.764;15.406;2023-11-22T08:34:02;32.65;;;7.93;;
76348;SDS011;65172;46.764;15.406;2023-11-22T08:36:29;39.42;;;7.82;;
76348;SDS011;65172;46.764;15.406;2023-11-22T08:38:56;53.78;;;8.60;;
76348;SDS011;65172;46.764;15.406;2023-11-22T08:41:24;139.18;;;10.73;;
76348;SDS011;65172;46.764;15.406;2023-11-22T08:43:50;215.27;;;13.27;;
76348;SDS011;65172;46.764;15.406;2023-11-22T08:46:15;31.35;;;7.63;;
76348;SDS011;65172;46.764;15.406;2023-11-22T08:48:41;7.15;;;6.45;;
76348;SDS011;65172;46.764;15.406;2023-11-22T08:51:07;14.93;;;7.43;;
76348;SDS011;65172;46.764;15.406;2023-11-22T08:53:32;8.68;;;7.57;;
76348;SDS011;65172;46.764;15.406;2023-11-22T08:56:01;12.55;;;7.53;;
76348;SDS011;65172;46.764;15.406;2023-11-22T08:58:30;9.43;;;7.90;;
76348;SDS011;65172;46.764;15.406;2023-11-22T09:00:58;27.02;;;8.18;;
76348;SDS011;65172;46.764;15.406;2023-11-22T09:03:24;8.13;;;7.28;;
76348;SDS011;65172;46.764;15.406;2023-11-22T09:05:49;7.63;;;6.38;;
76348;SDS011;65172;46.764;15.406;2023-11-22T09:08:15;187.15;;;12.75;;
76348;SDS011;65172;46.764;15.406;2023-11-22T09:10:41;34.60;;;8.38;;
76348;SDS011;65172;46.764;15.406;2023-11-22T09:13:10;14.45;;;9.50;;
76348;SDS011;65172;46.764;15.406;2023-11-22T09:15:36;10.77;;;6.88;;
76348;SDS011;65172;46.764;15.406;2023-11-22T09:18:03;11.25;;;7.72;;
76348;SDS011;65172;46.764;15.406;2023-11-22T09:20:29;7.97;;;7.10;;
76348;SDS011;65172;46.764;15.406;2023-11-22T09:22:55;11.65;;;9.43;;
76348;SDS011;65172;46.764;15.406;2023-11-22T09:25:21;12.30;;;8.95;;
76348;SDS011;65172;46.764;15.406;2023-11-22T09:27:50;13.95;;;9.52;;
76348;SDS011;65172;46.764;15.406;2023-11-22T09:30:20;9.90;;;7.93;;
76348;SDS011;65172;46.764;15.406;2023-11-22T09:35:42;11.93;;;8.65;;
76348;SDS011;65172;46.764;15.406;2023-11-22T09:38:12;11.95;;;8.75;;
76348;SDS011;65172;46.764;15.406;2023-11-22T09:40:47;14.65;;;11.52;;
76348;SDS011;65172;46.764;15.406;2023-11-22T09:43:14;11.13;;;7.90;;
76348;SDS011;65172;46.764;15.406;2023-11-22T09:45:43;7.55;;;6.13;;
76348;SDS011;65172;46.764;15.406;2023-11-22T09:53:40;73.50;;;10.63;;
76348;SDS011;65172;46.764;15.406;2023-11-22T09:56:08;11.93;;;9.30;;
76348;SDS011;65172;46.764;15.406;2023-11-22T09:58:35;10.48;;;8.18;;
76348;SDS011;65172;46.764;15.406;2023-11-22T10:01:04;10.18;;;8.20;;
76348;SDS011;65172;46.764;15.406;2023-11-22T10:03:30;9.65;;;8.65;;
76348;SDS011;65172;46.764;15.406;2023-11-22T10:05:56;9.38;;;7.75;;
76348;SDS011;65172;46.764;15.406;2023-11-22T10:08:25;8.10;;;7.30;;
76348;SDS011;65172;46.764;15.406;2023-11-22T10:10:52;7.78;;;5.82;;
76348;SDS011;65172;46.764;15.406;2023-11-22T10:13:19;6.60;;;5.85;;
76348;SDS011;65172;46.764;15.406;2023-11-22T10:15:45;8.02;;;4.75;;
76348;SDS011;65172;46.764;15.406;2023-11-22T10:18:13;5.07;;;4.57;;
76348;SDS011;65172;46.764;15.406;2023-11-22T10:20:39;5.13;;;4.65;;
76348;SDS011;65172;46.764;15.406;2023-11-22T10:23:09;9.10;;;4.68;;
76348;SDS011;65172;46.764;15.406;2023-11-22T10:28:09;5.15;;;4.65;;
76348;SDS011;65172;46.764;15.406;2023-11-22T10:30:35;6.43;;;5.22;;
76348;SDS011;65172;46.764;15.406;2023-11-22T10:33:01;7.13;;;5.10;;
76348;SDS011;65172;46.764;15.406;2023-11-22T10:35:28;8.13;;;5.45;;
76348;SDS011;65172;46.764;15.406;2023-11-22T10:37:53;5.82;;;5.22;;
76348;SDS011;65172;46.764;15.406;2023-11-22T10:40:18;6.22;;;5.22;;
76348;SDS011;65172;46.764;15.406;2023-11-22T10:42:44;8.10;;;4.90;;
76348;SDS011;65172;46.764;15.406;2023-11-22T10:45:14;6.55;;;4.05;;
76348;SDS011;65172;46.764;15.406;2023-11-22T10:47:41;8.10;;;4.50;;
76348;SDS011;65172;46.764;15.406;2023-11-22T10:50:08;5.68;;;4.10;;
76348;SDS011;65172;46.764;15.406;2023-11-22T10:52:35;4.43;;;3.88;;
76348;SDS011;65172;46.764;15.406;2023-11-22T10:55:02;4.00;;;3.50;;
76348;SDS011;65172;46.764;15.406;2023-11-22T10:57:31;4.80;;;3.92;;
76348;SDS011;65172;46.764;15.406;2023-11-22T10:59:59;5.57;;;4.78;;
76348;SDS011;65172;46.764;15.406;2023-11-22T11:02:36;4.88;;;3.85;;
76348;SDS011;65172;46.764;15.406;2023-11-22T11:05:17;4.03;;;3.38;;
76348;SDS011;65172;46.764;15.406;2023-11-22T11:07:56;6.65;;;3.67;;
76348;SDS011;65172;46.764;15.406;2023-11-22T11:10:45;4.57;;;3.40;;
76348;SDS011;65172;46.764;15.406;2023-11-22T11:13:12;4.13;;;3.35;;
76348;SDS011;65172;46.764;15.406;2023-11-22T11:15:41;3.38;;;3.10;;
76348;SDS011;65172;46.764;15.406;2023-11-22T11:18:12;3.70;;;3.17;;
76348;SDS011;65172;46.764;15.406;2023-11-22T11:20:50;3.35;;;2.70;;
76348;SDS011;65172;46.764;15.406;2023-11-22T11:23:21;4.70;;;3.25;;
76348;SDS011;65172;46.764;15.406;2023-11-22T11:25:49;4.32;;;3.25;;
76348;SDS011;65172;46.764;15.406;2023-11-22T11:28:14;5.00;;;3.65;;
76348;SDS011;65172;46.764;15.406;2023-11-22T11:30:44;5.53;;;3.88;;
76348;SDS011;65172;46.764;15.406;2023-11-22T11:33:17;5.78;;;3.85;;
76348;SDS011;65172;46.764;15.406;2023-11-22T11:35:52;6.13;;;3.55;;
76348;SDS011;65172;46.764;15.406;2023-11-22T11:38:21;4.10;;;3.55;;
76348;SDS011;65172;46.764;15.406;2023-11-22T11:40:47;5.05;;;3.53;;
76348;SDS011;65172;46.764;15.406;2023-11-22T11:43:13;4.53;;;3.67;;
76348;SDS011;65172;46.764;15.406;2023-11-22T11:45:40;5.97;;;4.28;;
76348;SDS011;65172;46.764;15.406;2023-11-22T11:48:18;4.72;;;3.50;;
76348;SDS011;65172;46.764;15.406;2023-11-22T11:50:45;4.47;;;3.25;;
76348;SDS011;65172;46.764;15.406;2023-11-22T11:53:11;5.45;;;3.33;;
76348;SDS011;65172;46.764;15.406;2023-11-22T11:55:37;4.20;;;3.72;;
76348;SDS011;65172;46.764;15.406;2023-11-22T11:58:06;3.90;;;3.50;;
76348;SDS011;65172;46.764;15.406;2023-11-22T12:00:34;4.18;;;3.22;;
76348;SDS011;65172;46.764;15.406;2023-11-22T12:03:09;5.10;;;2.95;;
76348;SDS011;65172;46.764;15.406;2023-11-22T12:05:35;4.22;;;3.05;;
76348;SDS011;65172;46.764;15.406;2023-11-22T12:08:02;4.05;;;3.22;;
76348;SDS011;65172;46.764;15.406;2023-11-22T12:10:28;4.30;;;3.30;;
76348;SDS011;65172;46.764;15.406;2023-11-22T12:12:53;5.68;;;4.53;;
76348;SDS011;65172;46.764;15.406;2023-11-22T12:15:19;6.53;;;3.28;;
76348;SDS011;65172;46.764;15.406;2023-11-22T12:17:44;3.40;;;3.00;;
76348;SDS011;65172;46.764;15.406;2023-11-22T12:20:10;3.70;;;2.90;;
76348;SDS011;65172;46.764;15.406;2023-11-22T12:22:38;3.53;;;2.80;;
76348;SDS011;65172;46.764;15.406;2023-11-22T12:25:03;3.28;;;2.80;;
76348;SDS011;65172;46.764;15.406;2023-11-22T12:27:30;3.28;;;2.90;;
76348;SDS011;65172;46.764;15.406;2023-11-22T12:29:56;3.35;;;2.47;;
76348;SDS011;65172;46.764;15.406;2023-11-22T12:32:25;3.22;;;2.78;;
76348;SDS011;65172;46.764;15.406;2023-11-22T12:34:52;3.10;;;2.50;;
76348;SDS011;65172;46.764;15.406;2023-11-22T12:37:20;3.05;;;2.70;;
76348;SDS011;65172;46.764;15.406;2023-11-22T12:39:47;3.20;;;2.83;;
76348;SDS011;65172;46.764;15.406;2023-11-22T12:42:13;3.55;;;2.67;;
76348;SDS011;65172;46.764;15.406;2023-11-22T12:44:51;2.50;;;2.30;;
76348;SDS011;65172;46.764;15.406;2023-11-22T12:47:37;4.72;;;3.60;;
76348;SDS011;65172;46.764;15.406;2023-11-22T12:50:03;3.10;;;2.78;;
76348;SDS011;65172;46.764;15.406;2023-11-22T12:52:29;3.83;;;2.92;;
76348;SDS011;65172;46.764;15.406;2023-11-22T12:54:58;3.08;;;2.85;;
76348;SDS011;65172;46.764;15.406;2023-11-22T12:57:24;5.82;;;2.95;;
76348;SDS011;65172;46.764;15.406;2023-11-22T12:59:49;3.17;;;2.50;;
76348;SDS011;65172;46.764;15.406;2023-11-22T13:02:15;4.18;;;2.40;;
76348;SDS011;65172;46.764;15.406;2023-11-22T13:04:42;3.83;;;2.70;;
76348;SDS011;65172;46.764;15.406;2023-11-22T13:07:07;3.05;;;2.75;;
76348;SDS011;65172;46.764;15.406;2023-11-22T13:09:33;3.53;;;2.63;;
76348;SDS011;65172;46.764;15.406;2023-11-22T13:12:00;5.28;;;2.70;;
76348;SDS011;65172;46.764;15.406;2023-11-22T13:14:26;2.90;;;2.58;;
76348;SDS011;65172;46.764;15.406;2023-11-22T13:16:57;3.35;;;2.75;;
76348;SDS011;65172;46.764;15.406;2023-11-22T13:19:22;4.00;;;2.75;;
76348;SDS011;65172;46.764;15.406;2023-11-22T13:21:47;5.57;;;2.60;;
76348;SDS011;65172;46.764;15.406;2023-11-22T13:24:14;3.17;;;2.70;;
76348;SDS011;65172;46.764;15.406;2023-11-22T13:26:43;4.10;;;2.78;;
76348;SDS011;65172;46.764;15.406;2023-11-22T13:29:08;4.40;;;2.63;;
76348;SDS011;65172;46.764;15.406;2023-11-22T13:31:34;2.38;;;2.08;;
76348;SDS011;65172;46.764;15.406;2023-11-22T13:33:59;3.17;;;2.60;;
76348;SDS011;65172;46.764;15.406;2023-11-22T13:36:24;4.22;;;2.58;;
76348;SDS011;65172;46.764;15.406;2023-11-22T13:38:50;4.53;;;2.63;;
76348;SDS011;65172;46.764;15.406;2023-11-22T13:41:16;2.88;;;2.58;;
76348;SDS011;65172;46.764;15.406;2023-11-22T13:43:41;5.18;;;2.75;;
76348;SDS011;65172;46.764;15.406;2023-11-22T13:46:06;2.67;;;2.40;;
76348;SDS011;65172;46.764;15.406;2023-11-22T13:48:35;4.68;;;3.17;;
76348;SDS011;65172;46.764;15.406;2023-11-22T13:51:01;2.78;;;2.58;;
76348;SDS011;65172;46.764;15.406;2023-11-22T13:53:28;3.67;;;2.90;;
76348;SDS011;65172;46.764;15.406;2023-11-22T13:55:58;5.10;;;2.67;;
76348;SDS011;65172;46.764;15.406;2023-11-22T13:58:26;2.80;;;2.55;;
76348;SDS011;65172;46.764;15.406;2023-11-22T14:00:52;4.72;;;2.75;;
76348;SDS011;65172;46.764;15.406;2023-11-22T14:03:19;3.20;;;2.53;;
76348;SDS011;65172;46.764;15.406;2023-11-22T14:05:47;3.35;;;2.78;;
76348;SDS011;65172;46.764;15.406;2023-11-22T14:08:13;6.65;;;2.80;;
76348;SDS011;65172;46.764;15.406;2023-11-22T14:10:40;3.83;;;2.67;;
76348;SDS011;65172;46.764;15.406;2023-11-22T14:13:05;4.53;;;3.25;;
76348;SDS011;65172;46.764;15.406;2023-11-22T14:15:33;4.15;;;2.85;;
76348;SDS011;65172;46.764;15.406;2023-11-22T14:17:59;3.05;;;2.78;;
76348;SDS011;65172;46.764;15.406;2023-11-22T14:20:25;3.67;;;2.67;;
76348;SDS011;65172;46.764;15.406;2023-11-22T14:22:50;6.43;;;3.55;;